createdAt,value
2023-11-30T03:24:28.020Z,31.58
2023-11-30T03:27:01.365Z,32.22
2023-11-30T03:29:32.678Z,29.55
2023-11-30T03:32:03.368Z,30.52
2023-11-30T03:34:33.714Z,32.35
2023-11-30T03:37:04.114Z,32.58
2023-11-30T03:39:34.781Z,35.53
2023-11-30T03:42:08.150Z,32.75
2023-11-30T03:44:38.713Z,31.83
2023-11-30T03:47:09.498Z,34.22
2023-11-30T03:49:39.850Z,34.55
2023-11-30T03:52:10.581Z,35.75
2023-11-30T03:54:41.368Z,34.88
2023-11-30T03:57:14.531Z,35.38
2023-11-30T03:59:44.978Z,32.30
2023-11-30T04:02:15.276Z,31.02
2023-11-30T04:04:45.850Z,34.92
2023-11-30T04:07:16.341Z,32.42
2023-11-30T04:09:48.507Z,30.95
2023-11-30T04:12:21.755Z,32.13
2023-11-30T04:14:52.225Z,32.13
2023-11-30T04:17:22.653Z,32.65
2023-11-30T04:19:53.345Z,31.77
2023-11-30T04:22:23.936Z,30.70
2023-11-30T04:24:54.354Z,31.90
2023-11-30T04:27:27.558Z,28.40
2023-11-30T04:29:58.152Z,28.45
2023-11-30T04:32:29.003Z,31.95
2023-11-30T04:34:59.396Z,27.42
2023-11-30T04:37:30.002Z,29.70
2023-11-30T04:40:00.446Z,28.45
2023-11-30T04:42:33.436Z,30.08
2023-11-30T04:45:04.207Z,31.55
2023-11-30T04:47:34.606Z,30.73
2023-11-30T04:50:05.087Z,28.80
2023-11-30T04:52:35.367Z,30.35
2023-11-30T04:55:05.753Z,30.45
2023-11-30T04:57:39.264Z,32.58
2023-11-30T05:00:11.385Z,31.98
2023-11-30T05:02:42.323Z,31.42
2023-11-30T05:05:13.028Z,31.00
2023-11-30T05:07:43.297Z,29.27
2023-11-30T05:10:14.019Z,29.10
2023-11-30T05:12:47.760Z,33.20
2023-11-30T05:15:18.121Z,29.48
2023-11-30T05:17:48.921Z,28.92
2023-11-30T05:20:20.437Z,28.75
2023-11-30T05:22:50.679Z,26.73
2023-11-30T05:25:21.311Z,29.45
2023-11-30T05:27:54.764Z,27.95
2023-11-30T05:30:25.294Z,26.88
2023-11-30T05:32:56.044Z,27.13
2023-11-30T05:35:27.478Z,28.83
2023-11-30T05:37:58.405Z,30.33
2023-11-30T05:40:29.190Z,25.95
2023-11-30T05:43:02.571Z,30.67
2023-11-30T05:45:33.115Z,30.50
2023-11-30T05:48:03.642Z,28.35
2023-11-30T05:50:34.006Z,30.90
2023-11-30T05:53:06.472Z,29.55
2023-11-30T05:55:37.365Z,31.65
2023-11-30T05:58:13.065Z,27.90
2023-11-30T06:00:43.435Z,29.75
2023-11-30T06:03:14.162Z,26.95
2023-11-30T06:05:44.794Z,28.42
2023-11-30T06:08:15.409Z,30.50
2023-11-30T06:10:45.948Z,28.48
2023-11-30T06:13:19.109Z,28.73
2023-11-30T06:15:50.610Z,26.17
2023-11-30T06:18:21.199Z,26.83
2023-11-30T06:20:51.827Z,29.00
2023-11-30T06:23:22.203Z,25.90
2023-11-30T06:25:52.993Z,27.40
2023-11-30T06:28:29.625Z,24.75
2023-11-30T06:31:00.459Z,26.00
2023-11-30T06:33:30.894Z,31.33
2023-11-30T06:36:06.183Z,29.15
2023-11-30T06:38:36.527Z,29.05
2023-11-30T06:41:14.983Z,29.13
2023-11-30T06:43:48.091Z,27.60
2023-11-30T06:46:24.148Z,28.85
2023-11-30T06:48:54.786Z,29.17
2023-11-30T06:51:25.254Z,28.25
2023-11-30T06:53:55.782Z,30.20
2023-11-30T06:56:26.450Z,30.50
2023-11-30T06:58:59.519Z,25.60
2023-11-30T07:01:31.478Z,29.02
2023-11-30T07:04:02.342Z,31.10
2023-11-30T07:06:33.123Z,33.67
2023-11-30T07:09:05.479Z,33.15
2023-11-30T07:11:35.791Z,30.80
2023-11-30T07:14:08.676Z,31.00
2023-11-30T07:16:39.792Z,33.20
2023-11-30T07:19:11.177Z,32.30
2023-11-30T07:21:41.817Z,30.45
2023-11-30T07:24:13.563Z,31.33
2023-11-30T07:26:43.974Z,30.52
2023-11-30T07:29:17.316Z,31.35
2023-11-30T07:31:48.391Z,31.58
2023-11-30T07:34:18.968Z,30.35
2023-11-30T07:36:49.369Z,27.52
2023-11-30T07:39:20.273Z,27.95
2023-11-30T07:41:51.691Z,30.73
2023-11-30T07:44:25.497Z,28.25
2023-11-30T07:46:56.039Z,31.52
2023-11-30T07:49:26.423Z,25.67
2023-11-30T07:51:56.780Z,27.73
2023-11-30T07:54:28.294Z,24.83
2023-11-30T07:56:58.639Z,24.60
2023-11-30T07:59:33.342Z,29.63
2023-11-30T08:02:05.537Z,26.42
2023-11-30T08:04:36.028Z,27.63
2023-11-30T08:07:07.275Z,27.52
2023-11-30T08:09:38.082Z,29.65
2023-11-30T08:12:09.266Z,30.33
2023-11-30T08:14:42.369Z,35.35
2023-11-30T08:17:12.778Z,30.80
2023-11-30T08:19:44.588Z,29.65
2023-11-30T08:22:15.447Z,30.92
2023-11-30T08:24:46.536Z,32.67
2023-11-30T08:27:17.239Z,35.35
2023-11-30T08:29:50.541Z,34.83
2023-11-30T08:32:20.897Z,37.60
2023-11-30T08:34:54.369Z,37.88
2023-11-30T08:37:24.727Z,37.67
2023-11-30T08:39:55.180Z,39.13
2023-11-30T08:42:25.701Z,37.33
2023-11-30T08:44:58.701Z,37.22
2023-11-30T08:47:29.212Z,36.97
2023-11-30T08:49:59.687Z,35.72
2023-11-30T08:52:30.109Z,36.95
2023-11-30T08:55:00.434Z,36.33
2023-11-30T08:57:30.818Z,35.63
2023-11-30T09:00:07.261Z,34.30
2023-11-30T09:02:38.031Z,34.28
2023-11-30T09:05:09.561Z,33.80
2023-11-30T09:07:40.574Z,36.72
2023-11-30T09:10:12.069Z,34.22
2023-11-30T09:12:42.541Z,33.55
2023-11-30T09:15:16.578Z,33.50
2023-11-30T09:17:46.919Z,35.38
2023-11-30T09:20:17.496Z,35.13
2023-11-30T09:22:48.268Z,37.17
2023-11-30T09:25:19.057Z,34.47
2023-11-30T09:27:50.544Z,34.22
2023-11-30T09:30:24.246Z,33.67
2023-11-30T09:32:56.590Z,33.55
2023-11-30T09:35:27.329Z,35.08
2023-11-30T09:38:00.717Z,34.38
2023-11-30T09:40:31.476Z,33.35
2023-11-30T09:43:02.031Z,31.10
2023-11-30T09:45:35.403Z,33.20
2023-11-30T09:48:06.671Z,32.92
2023-11-30T09:50:37.452Z,34.25
2023-11-30T09:53:08.293Z,34.33
2023-11-30T09:55:39.485Z,31.75
2023-11-30T09:58:10.313Z,33.65
2023-11-30T10:00:43.663Z,32.63
2023-11-30T10:03:14.296Z,35.13
2023-11-30T10:05:46.347Z,32.88
2023-11-30T10:08:17.837Z,31.30
2023-11-30T10:10:50.656Z,31.98
2023-11-30T10:13:20.857Z,31.55
2023-11-30T10:15:53.849Z,33.13
2023-11-30T10:18:24.129Z,33.60
2023-11-30T10:20:54.377Z,30.75
2023-11-30T10:23:24.605Z,31.27
2023-11-30T10:25:56.340Z,30.80
2023-11-30T10:28:27.012Z,29.52
2023-11-30T10:31:04.566Z,32.17
2023-11-30T10:33:41.823Z,32.50
2023-11-30T10:36:13.603Z,31.48
2023-11-30T10:38:48.264Z,30.67
2023-11-30T10:41:26.594Z,30.30
2023-11-30T10:44:00.505Z,30.58
2023-11-30T10:46:34.849Z,32.25
2023-11-30T10:49:06.999Z,31.23
2023-11-30T10:51:39.325Z,31.35
2023-11-30T10:54:17.979Z,30.40
2023-11-30T10:56:48.366Z,31.80
2023-11-30T10:59:20.471Z,30.25
2023-11-30T11:01:54.566Z,32.15
2023-11-30T11:04:27.966Z,31.20
2023-11-30T11:07:04.916Z,29.58
2023-11-30T11:09:46.163Z,27.40
2023-11-30T11:12:24.095Z,29.65
2023-11-30T11:14:55.393Z,28.67
2023-11-30T11:17:29.728Z,29.95
2023-11-30T11:20:06.891Z,29.58
2023-11-30T11:22:41.160Z,30.60
2023-11-30T11:25:14.370Z,32.05
2023-11-30T11:27:45.231Z,30.35
2023-11-30T11:30:17.059Z,29.70
2023-11-30T11:32:52.776Z,29.48
2023-11-30T11:35:22.987Z,29.77
2023-11-30T11:37:54.908Z,30.77
2023-11-30T11:40:26.271Z,31.45
2023-11-30T11:42:56.691Z,30.92
2023-11-30T11:45:26.928Z,29.95
2023-11-30T11:48:00.297Z,29.35
2023-11-30T11:50:30.463Z,30.63
2023-11-30T11:53:04.914Z,31.73
2023-11-30T11:55:37.342Z,30.23
2023-11-30T11:58:07.467Z,29.63
2023-11-30T12:00:37.743Z,29.92
2023-11-30T12:03:11.715Z,31.48
2023-11-30T12:05:50.870Z,30.45
2023-11-30T12:08:34.646Z,30.98
